Time;durP1;ratioP1;P1;durP2;ratioP2;P2;SDS_P1;SDS_P2;PMS_P1;PMS_P2;Temp;Humidity;BMP_temperature;BMP_pressure;BME280_temperature;BME280_humidity;BME280_pressure;Samples;Min_cycle;Max_cycle;Signal;HPM_P1;HPM_P2
2022/10/07 00:00:23;;;;;;;9.60;3.40;;;;;;;;;;4963314;28;20500;-62
2022/10/07 00:02:49;;;;;;;11.00;4.10;;;;;;;;;;4958958;28;20038;-62
2022/10/07 00:05:15;;;;;;;15.20;3.70;;;;;;;;;;4960938;28;20051;-62
2022/10/07 00:07:41;;;;;;;11.07;3.97;;;;;;;;;;4956511;28;20051;-62
2022/10/07 00:10:07;;;;;;;11.77;4.27;;;;;;;;;;4959849;28;20392;-62
2022/10/07 00:12:34;;;;;;;12.07;3.93;;;;;;;;;;4956316;28;20043;-62
2022/10/07 00:15:00;;;;;;;13.50;4.40;;;;;;;;;;4961034;28;20051;-62
2022/10/07 00:17:26;;;;;;;15.50;5.90;;;;;;;;;;4956745;28;20500;-62
2022/10/07 00:19:52;;;;;;;11.93;4.23;;;;;;;;;;4964979;28;20076;-62
2022/10/07 00:22:18;;;;;;;21.83;4.63;;;;;;;;;;4970162;28;20050;-62
2022/10/07 00:24:44;;;;;;;13.43;4.30;;;;;;;;;;4969976;28;20046;-62
2022/10/07 00:27:10;;;;;;;18.10;5.17;;;;;;;;;;4970263;28;20043;-62
2022/10/07 00:29:36;;;;;;;9.70;5.13;;;;;;;;;;4969076;28;20055;-62
2022/10/07 00:32:02;;;;;;;11.53;4.50;;;;;;;;;;4969816;28;20058;-62
2022/10/07 00:34:28;;;;;;;12.07;4.03;;;;;;;;;;4969654;28;20062;-62
2022/10/07 00:36:54;;;;;;;11.77;4.30;;;;;;;;;;4969565;28;20061;-62
2022/10/07 00:39:20;;;;;;;12.20;4.77;;;;;;;;;;4969784;28;20089;-63
2022/10/07 00:41:49;;;;;;;12.07;4.67;;;;;;;;;;4969726;28;20050;-62
2022/10/07 00:44:24;;;;;;;14.27;4.53;;;;;;;;;;4967748;28;20055;-63
2022/10/07 00:46:54;;;;;;;18.90;6.00;;;;;;;;;;4969907;28;20416;-62
2022/10/07 00:49:20;;;;;;;10.07;4.67;;;;;;;;;;4970067;28;20050;-62
2022/10/07 00:51:47;;;;;;;13.70;5.00;;;;;;;;;;4969077;28;20046;-62
2022/10/07 00:54:15;;;;;;;14.30;4.97;;;;;;;;;;4969496;28;20047;-62
2022/10/07 00:56:42;;;;;;;14.07;4.83;;;;;;;;;;4969653;28;20094;-62
2022/10/07 00:59:08;;;;;;;10.60;4.63;;;;;;;;;;4969389;28;20047;-62
2022/10/07 01:01:34;;;;;;;17.03;4.47;;;;;;;;;;4969787;28;20058;-62
2022/10/07 01:04:00;;;;;;;14.23;4.53;;;;;;;;;;4969416;28;20051;-62
2022/10/07 01:06:26;;;;;;;15.57;4.23;;;;;;;;;;4958087;28;20051;-62
2022/10/07 01:08:53;;;;;;;14.70;4.03;;;;;;;;;;4950642;29;20059;-62
2022/10/07 01:11:19;;;;;;;15.17;4.47;;;;;;;;;;4950433;29;20043;-62
2022/10/07 01:13:45;;;;;;;12.37;4.07;;;;;;;;;;4949135;29;20056;-62
2022/10/07 01:16:30;;;;;;;14.40;5.87;;;;;;;;;;4949769;29;20433;-62
2022/10/07 01:19:02;;;;;;;11.07;4.40;;;;;;;;;;4950530;29;20059;-63
2022/10/07 01:21:34;;;;;;;16.60;4.30;;;;;;;;;;4951068;28;20050;-62
2022/10/07 01:24:03;;;;;;;15.93;6.47;;;;;;;;;;4967877;28;20082;-62
2022/10/07 01:26:41;;;;;;;14.37;4.53;;;;;;;;;;4969292;28;20141;-62
2022/10/07 01:29:27;;;;;;;16.37;4.90;;;;;;;;;;4969568;28;20440;-62
2022/10/07 01:32:16;;;;;;;17.57;4.63;;;;;;;;;;4969305;28;20057;-62
2022/10/07 01:34:42;;;;;;;16.20;5.07;;;;;;;;;;4968958;28;20133;-62
2022/10/07 01:37:13;;;;;;;22.53;5.53;;;;;;;;;;4969403;28;20520;-62
2022/10/07 01:39:45;;;;;;;12.23;4.60;;;;;;;;;;4969135;28;20405;-62
2022/10/07 01:42:11;;;;;;;12.60;5.40;;;;;;;;;;4969299;28;20047;-62
2022/10/07 01:44:38;;;;;;;10.13;5.20;;;;;;;;;;4971565;28;20050;-62
2022/10/07 01:47:06;;;;;;;18.97;5.67;;;;;;;;;;4972315;28;20042;-62
2022/10/07 01:49:32;;;;;;;10.57;4.20;;;;;;;;;;4972604;28;20082;-62
2022/10/07 01:52:15;;;;;;;19.43;5.20;;;;;;;;;;4972268;28;20046;-62
2022/10/07 01:54:49;;;;;;;14.70;4.77;;;;;;;;;;4971822;28;20748;-62
2022/10/07 01:57:18;;;;;;;18.63;5.30;;;;;;;;;;4972590;28;20126;-62
2022/10/07 01:59:50;;;;;;;15.77;5.43;;;;;;;;;;4970905;28;20051;-62
2022/10/07 02:02:35;;;;;;;16.23;4.73;;;;;;;;;;4972348;28;20055;-62
2022/10/07 02:05:13;;;;;;;14.10;4.30;;;;;;;;;;4972930;28;20057;-63
2022/10/07 02:07:50;;;;;;;14.80;4.73;;;;;;;;;;4972583;28;20058;-63
2022/10/07 02:10:16;;;;;;;14.07;5.27;;;;;;;;;;4972174;28;20133;-63
2022/10/07 02:12:46;;;;;;;14.73;4.97;;;;;;;;;;4972435;28;20137;-62
2022/10/07 02:15:27;;;;;;;22.73;5.03;;;;;;;;;;4972083;28;20042;-63
2022/10/07 02:17:58;;;;;;;14.67;5.33;;;;;;;;;;4970960;28;20051;-63
2022/10/07 02:20:26;;;;;;;18.87;7.17;;;;;;;;;;4972292;28;20555;-63
2022/10/07 02:22:54;;;;;;;14.67;5.07;;;;;;;;;;4971748;28;20054;-63
2022/10/07 02:25:20;;;;;;;16.37;5.47;;;;;;;;;;4972132;28;20043;-63
2022/10/07 02:27:48;;;;;;;16.10;5.30;;;;;;;;;;4971689;28;20038;-63
2022/10/07 02:30:15;;;;;;;14.40;5.13;;;;;;;;;;4972124;28;20055;-63
2022/10/07 02:32:45;;;;;;;15.07;5.40;;;;;;;;;;4971481;28;20164;-63
2022/10/07 02:35:18;;;;;;;13.83;5.47;;;;;;;;;;4970781;28;20505;-63
2022/10/07 02:37:46;;;;;;;19.67;6.25;;;;;;;;;;4971311;28;20057;-63
2022/10/07 02:40:12;;;;;;;22.40;6.03;;;;;;;;;;4971512;28;20055;-63
2022/10/07 02:43:05;;;;;;;17.57;5.40;;;;;;;;;;4971788;28;20047;-63
2022/10/07 02:45:35;;;;;;;21.00;5.60;;;;;;;;;;4971342;28;20053;-63
2022/10/07 02:48:11;;;;;;;15.17;5.63;;;;;;;;;;4971407;28;20904;-63
2022/10/07 02:50:39;;;;;;;18.00;5.23;;;;;;;;;;4969077;28;20121;-63
2022/10/07 02:53:06;;;;;;;12.30;5.30;;;;;;;;;;4971493;28;20070;-63
2022/10/07 02:55:33;;;;;;;13.00;5.33;;;;;;;;;;4969725;28;20051;-63
2022/10/07 02:58:01;;;;;;;20.00;6.40;;;;;;;;;;4971474;28;20047;-63
2022/10/07 03:00:29;;;;;;;24.03;7.33;;;;;;;;;;4969780;28;20101;-63
2022/10/07 03:03:01;;;;;;;15.80;5.30;;;;;;;;;;4971298;28;20458;-63
2022/10/07 03:05:27;;;;;;;14.60;5.77;;;;;;;;;;4971270;28;20061;-63
2022/10/07 03:08:01;;;;;;;19.77;5.70;;;;;;;;;;4971269;28;20093;-63
2022/10/07 03:10:27;;;;;;;;;;;;;;;;;;4971035;28;20047;-63
2022/10/07 03:12:54;;;;;;;17.23;5.83;;;;;;;;;;4971081;28;19928;-63
2022/10/07 03:15:21;;;;;;;19.53;5.63;;;;;;;;;;4970947;28;20043;-63
2022/10/07 03:17:47;;;;;;;15.67;5.30;;;;;;;;;;4970550;28;20047;-63
2022/10/07 03:20:14;;;;;;;17.00;5.20;;;;;;;;;;4970764;28;20053;-63
2022/10/07 03:22:42;;;;;;;19.97;6.60;;;;;;;;;;4970855;28;20049;-63
2022/10/07 03:25:08;;;;;;;24.07;6.23;;;;;;;;;;4969766;28;20043;-63
2022/10/07 03:27:35;;;;;;;21.33;7.13;;;;;;;;;;4970476;28;20120;-63
2022/10/07 03:30:01;;;;;;;19.20;5.90;;;;;;;;;;4969207;28;20133;-63
2022/10/07 03:32:27;;;;;;;18.47;5.80;;;;;;;;;;4970479;28;20086;-63
2022/10/07 03:34:54;;;;;;;15.13;5.87;;;;;;;;;;4970736;28;20485;-63
2022/10/07 03:37:21;;;;;;;22.23;6.37;;;;;;;;;;4970523;28;20899;-63
2022/10/07 03:39:47;;;;;;;21.30;7.70;;;;;;;;;;4969951;28;20096;-63
2022/10/07 03:42:13;;;;;;;22.73;6.70;;;;;;;;;;4970171;28;20055;-63
2022/10/07 03:44:39;;;;;;;21.63;6.23;;;;;;;;;;4969043;28;20043;-63
2022/10/07 03:47:07;;;;;;;21.40;7.37;;;;;;;;;;4969923;28;20046;-63
2022/10/07 03:49:33;;;;;;;20.53;7.07;;;;;;;;;;4969013;28;20055;-63
2022/10/07 03:51:59;;;;;;;18.80;6.23;;;;;;;;;;4970573;28;20058;-63
2022/10/07 03:54:25;;;;;;;22.97;6.33;;;;;;;;;;4970644;28;20665;-63
2022/10/07 03:56:51;;;;;;;22.00;7.97;;;;;;;;;;4968866;28;20054;-63
2022/10/07 03:59:17;;;;;;;21.87;6.50;;;;;;;;;;4969736;28;20047;-63
2022/10/07 04:01:44;;;;;;;20.23;6.57;;;;;;;;;;4970428;28;20046;-63
2022/10/07 04:04:10;;;;;;;20.47;7.87;;;;;;;;;;4968977;28;20054;-63
2022/10/07 04:06:37;;;;;;;39.67;7.53;;;;;;;;;;4969378;28;20047;-63
2022/10/07 04:09:04;;;;;;;27.03;7.47;;;;;;;;;;4970084;28;20106;-63
2022/10/07 04:11:30;;;;;;;18.87;6.90;;;;;;;;;;4970207;28;20046;-63
2022/10/07 04:13:59;;;;;;;22.00;7.17;;;;;;;;;;4969979;28;20043;-63
2022/10/07 04:16:25;;;;;;;27.57;7.50;;;;;;;;;;4970007;28;20075;-63
2022/10/07 04:18:54;;;;;;;21.17;7.53;;;;;;;;;;4970025;28;20416;-63
2022/10/07 04:21:20;;;;;;;19.03;7.20;;;;;;;;;;4969778;28;20081;-63
2022/10/07 04:23:46;;;;;;;20.10;7.57;;;;;;;;;;4969641;28;20070;-63
2022/10/07 04:26:12;;;;;;;24.03;8.07;;;;;;;;;;4969384;28;20105;-63
2022/10/07 04:28:39;;;;;;;20.07;7.43;;;;;;;;;;4968316;28;20098;-63
2022/10/07 04:31:07;;;;;;;25.53;8.20;;;;;;;;;;4969942;28;20065;-64
2022/10/07 04:33:34;;;;;;;21.07;7.40;;;;;;;;;;4968470;28;20493;-63
2022/10/07 04:36:04;;;;;;;20.13;7.40;;;;;;;;;;4969231;28;20043;-63
2022/10/07 04:38:31;;;;;;;28.70;8.00;;;;;;;;;;4970115;28;20170;-63
2022/10/07 04:40:57;;;;;;;28.13;9.13;;;;;;;;;;4969763;28;20050;-63
2022/10/07 04:43:26;;;;;;;19.67;7.97;;;;;;;;;;4969628;28;20054;-64
2022/10/07 04:46:15;;;;;;;18.20;8.30;;;;;;;;;;4969068;28;20138;-63
2022/10/07 04:48:47;;;;;;;23.13;9.10;;;;;;;;;;4969956;28;20057;-63
2022/10/07 04:51:14;;;;;;;19.07;7.67;;;;;;;;;;4969986;28;20145;-63
2022/10/07 04:53:40;;;;;;;18.20;7.43;;;;;;;;;;4969769;28;20050;-63
2022/10/07 04:56:08;;;;;;;24.13;8.63;;;;;;;;;;4968957;28;20181;-63
2022/10/07 04:58:35;;;;;;;23.83;8.90;;;;;;;;;;4968970;28;20050;-63
2022/10/07 05:01:06;;;;;;;21.00;7.73;;;;;;;;;;4966775;28;20051;-63
2022/10/07 05:03:35;;;;;;;25.93;8.23;;;;;;;;;;4966001;28;20511;-64
2022/10/07 05:06:03;;;;;;;26.20;8.63;;;;;;;;;;4966574;28;20065;-63
2022/10/07 05:08:29;;;;;;;25.23;8.77;;;;;;;;;;4967859;28;20069;-63
2022/10/07 05:10:55;;;;;;;27.30;10.00;;;;;;;;;;4968307;28;20877;-63
2022/10/07 05:13:23;;;;;;;32.53;9.33;;;;;;;;;;4950423;28;20400;-63
2022/10/07 05:15:59;;;;;;;22.00;7.70;;;;;;;;;;4949258;29;20445;-63
2022/10/07 05:18:26;;;;;;;26.90;9.10;;;;;;;;;;4952908;28;20548;-63
2022/10/07 05:20:53;;;;;;;26.13;8.00;;;;;;;;;;4955740;28;20055;-63
2022/10/07 05:23:20;;;;;;;30.20;8.87;;;;;;;;;;4972794;28;20043;-63
2022/10/07 05:25:46;;;;;;;32.07;9.50;;;;;;;;;;4972353;28;20050;-63
2022/10/07 05:28:14;;;;;;;26.67;8.83;;;;;;;;;;4973088;28;20054;-64
2022/10/07 05:30:41;;;;;;;30.57;8.70;;;;;;;;;;4972380;28;20185;-63
2022/10/07 05:33:08;;;;;;;27.27;9.63;;;;;;;;;;4972839;28;20049;-63
2022/10/07 05:35:35;;;;;;;29.63;9.23;;;;;;;;;;4971661;28;20061;-63
2022/10/07 05:38:01;;;;;;;28.23;8.43;;;;;;;;;;4968831;28;20050;-63
2022/10/07 05:40:28;;;;;;;23.43;8.73;;;;;;;;;;4970355;28;20094;-64
2022/10/07 05:42:54;;;;;;;28.77;8.93;;;;;;;;;;4957368;28;20130;-63
2022/10/07 05:45:20;;;;;;;27.10;9.13;;;;;;;;;;4970918;28;20054;-63
2022/10/07 05:47:46;;;;;;;26.83;8.30;;;;;;;;;;4970928;28;20564;-63
2022/10/07 05:50:13;;;;;;;24.50;9.00;;;;;;;;;;4970737;28;20097;-63
2022/10/07 05:52:39;;;;;;;28.00;8.73;;;;;;;;;;4970773;28;20049;-64
2022/10/07 05:55:05;;;;;;;24.60;8.37;;;;;;;;;;4972401;28;20054;-63
2022/10/07 05:57:31;;;;;;;25.40;8.37;;;;;;;;;;4955717;28;20057;-63
2022/10/07 05:59:57;;;;;;;27.53;8.40;;;;;;;;;;4971284;28;20536;-63
2022/10/07 06:02:24;;;;;;;30.10;8.10;;;;;;;;;;4956772;28;20047;-63
2022/10/07 06:04:50;;;;;;;22.30;8.23;;;;;;;;;;4960895;28;20054;-63
2022/10/07 06:07:16;;;;;;;28.70;8.60;;;;;;;;;;4971139;28;20569;-63
2022/10/07 06:15:12;;;;;;;19.97;6.43;;;;;;;;;;4963193;28;20135;-63
2022/10/07 06:17:45;;;;;;;24.80;7.73;;;;;;;;;;4951472;28;20082;-63
2022/10/07 06:20:13;;;;;;;34.03;8.20;;;;;;;;;;4952315;29;20067;-63
2022/10/07 06:22:40;;;;;;;22.77;6.37;;;;;;;;;;4966641;28;20057;-64
2022/10/07 06:25:06;;;;;;;28.03;8.93;;;;;;;;;;4959931;28;20054;-63
2022/10/07 06:27:33;;;;;;;26.27;7.77;;;;;;;;;;4964367;28;20054;-63
2022/10/07 06:29:59;;;;;;;21.50;6.07;;;;;;;;;;4951343;28;20055;-64
2022/10/07 06:32:26;;;;;;;20.40;6.37;;;;;;;;;;4967359;28;20061;-63
2022/10/07 06:34:52;;;;;;;24.27;6.80;;;;;;;;;;4967133;28;20047;-63
2022/10/07 06:37:19;;;;;;;26.40;6.80;;;;;;;;;;4970177;28;20505;-63
2022/10/07 06:39:45;;;;;;;26.43;6.73;;;;;;;;;;4956367;28;20051;-63
2022/10/07 06:42:11;;;;;;;21.53;6.17;;;;;;;;;;4958631;28;20051;-63
2022/10/07 06:44:37;;;;;;;27.97;7.77;;;;;;;;;;4968925;28;20047;-63
2022/10/07 06:47:03;;;;;;;19.13;5.33;;;;;;;;;;4951819;29;20057;-64
2022/10/07 06:49:30;;;;;;;18.53;5.10;;;;;;;;;;4967197;28;20101;-64
2022/10/07 06:51:56;;;;;;;22.73;6.53;;;;;;;;;;4968727;28;20061;-63
2022/10/07 06:54:23;;;;;;;20.83;5.37;;;;;;;;;;4969029;28;20080;-63
2022/10/07 06:56:49;;;;;;;15.97;5.33;;;;;;;;;;4969294;28;20039;-63
2022/10/07 06:59:15;;;;;;;27.93;5.87;;;;;;;;;;4958807;28;20109;-63
2022/10/07 07:01:41;;;;;;;17.03;5.03;;;;;;;;;;4951040;28;20043;-63
2022/10/07 07:04:07;;;;;;;20.23;5.90;;;;;;;;;;4951315;28;20058;-63
2022/10/07 07:06:36;;;;;;;20.33;5.57;;;;;;;;;;4963279;28;20043;-63
2022/10/07 07:09:04;;;;;;;19.17;5.30;;;;;;;;;;4957039;28;20493;-63
2022/10/07 07:11:36;;;;;;;20.63;6.00;;;;;;;;;;4969079;28;20133;-63
2022/10/07 07:14:03;;;;;;;19.55;4.88;;;;;;;;;;4954355;28;20044;-63
2022/10/07 07:16:30;;;;;;;21.40;4.57;;;;;;;;;;4951522;28;20561;-63
2022/10/07 07:19:04;;;;;;;18.07;4.70;;;;;;;;;;4949736;28;20138;-63
2022/10/07 07:21:32;;;;;;;17.70;5.17;;;;;;;;;;4962632;28;20168;-63
2022/10/07 07:23:58;;;;;;;17.30;4.20;;;;;;;;;;4968783;28;20047;-63
2022/10/07 07:26:26;;;;;;;23.93;4.33;;;;;;;;;;4966712;28;20406;-63
2022/10/07 07:29:01;;;;;;;12.53;4.80;;;;;;;;;;4960123;28;20058;-63
2022/10/07 07:31:27;;;;;;;13.60;3.47;;;;;;;;;;4966989;28;20130;-63
2022/10/07 07:33:54;;;;;;;30.67;4.77;;;;;;;;;;4967752;28;20051;-63
2022/10/07 07:36:25;;;;;;;12.00;4.90;;;;;;;;;;4969564;28;20053;-63
2022/10/07 07:38:51;;;;;;;22.27;4.37;;;;;;;;;;4962751;28;20146;-63
2022/10/07 07:41:18;;;;;;;19.40;4.97;;;;;;;;;;4969117;28;20046;-63
2022/10/07 07:43:47;;;;;;;20.57;4.17;;;;;;;;;;4954698;28;20046;-64
2022/10/07 07:46:13;;;;;;;13.50;4.17;;;;;;;;;;4964189;28;20086;-63
2022/10/07 07:48:39;;;;;;;14.23;3.90;;;;;;;;;;4960410;28;20074;-63
2022/10/07 07:51:06;;;;;;;16.37;3.80;;;;;;;;;;4954519;28;20047;-63
2022/10/07 07:53:33;;;;;;;22.07;5.07;;;;;;;;;;4965702;28;20465;-63
2022/10/07 07:56:01;;;;;;;19.70;4.43;;;;;;;;;;4969822;28;20057;-63
2022/10/07 07:58:28;;;;;;;14.47;5.20;;;;;;;;;;4968896;28;20059;-63
2022/10/07 08:01:02;;;;;;;15.17;3.97;;;;;;;;;;4969603;28;20543;-63
2022/10/07 08:03:28;;;;;;;;;;;;;;;;;;4970015;28;20237;-63
2022/10/07 08:05:54;;;;;;;19.50;3.40;;;;;;;;;;4969364;28;19946;-63
2022/10/07 08:08:21;;;;;;;18.13;4.10;;;;;;;;;;4969713;28;20047;-63
2022/10/07 08:10:47;;;;;;;16.53;4.17;;;;;;;;;;4969277;28;20126;-63
2022/10/07 08:13:13;;;;;;;18.13;3.80;;;;;;;;;;4968974;28;20050;-64
2022/10/07 08:15:39;;;;;;;14.53;3.80;;;;;;;;;;4969425;28;20047;-63
2022/10/07 08:18:07;;;;;;;16.60;3.43;;;;;;;;;;4969218;28;20416;-63
2022/10/07 08:20:34;;;;;;;19.00;3.23;;;;;;;;;;4968665;28;20613;-64
2022/10/07 08:23:01;;;;;;;13.67;3.30;;;;;;;;;;4968181;28;20416;-63
2022/10/07 08:25:27;;;;;;;19.13;3.57;;;;;;;;;;4969313;28;20057;-63
2022/10/07 08:27:53;;;;;;;17.33;3.87;;;;;;;;;;4969190;28;20043;-64
2022/10/07 08:30:19;;;;;;;13.67;3.27;;;;;;;;;;4968492;28;20063;-63
2022/10/07 08:32:45;;;;;;;16.77;4.20;;;;;;;;;;4967857;28;20057;-63
2022/10/07 08:35:12;;;;;;;16.87;3.43;;;;;;;;;;4967710;28;20054;-63
2022/10/07 08:37:38;;;;;;;15.63;2.80;;;;;;;;;;4968920;28;20034;-63
2022/10/07 08:40:04;;;;;;;13.77;3.33;;;;;;;;;;4969091;28;20050;-63
2022/10/07 08:42:34;;;;;;;13.93;3.20;;;;;;;;;;4968576;28;20093;-63
2022/10/07 08:45:00;;;;;;;17.80;3.60;;;;;;;;;;4969142;28;20058;-63
2022/10/07 08:47:29;;;;;;;16.67;3.93;;;;;;;;;;4968686;28;20492;-63
2022/10/07 08:50:08;;;;;;;14.30;3.20;;;;;;;;;;4968411;28;20534;-63
2022/10/07 08:52:34;;;;;;;11.07;2.80;;;;;;;;;;4970066;28;20151;-63
2022/10/07 08:55:01;;;;;;;18.57;4.27;;;;;;;;;;4971529;28;20042;-63
2022/10/07 08:57:50;;;;;;;16.50;2.97;;;;;;;;;;4972227;28;20505;-63
2022/10/07 09:00:19;;;;;;;12.10;3.17;;;;;;;;;;4962612;28;20062;-63
2022/10/07 09:02:52;;;;;;;11.03;2.93;;;;;;;;;;4972670;28;20062;-63
2022/10/07 09:05:26;;;;;;;17.27;3.28;;;;;;;;;;4972421;28;20074;-63
2022/10/07 09:07:57;;;;;;;12.63;2.83;;;;;;;;;;4971767;28;20043;-63
2022/10/07 09:10:23;;;;;;;13.10;2.90;;;;;;;;;;4972588;28;20046;-63
2022/10/07 09:12:57;;;;;;;13.30;3.53;;;;;;;;;;4972435;28;20051;-63
2022/10/07 09:15:45;;;;;;;13.47;3.00;;;;;;;;;;4972069;28;20047;-63
2022/10/07 09:18:16;;;;;;;15.23;2.83;;;;;;;;;;4972641;28;20039;-63
2022/10/07 09:20:45;;;;;;;11.77;2.50;;;;;;;;;;4972556;28;20046;-63
2022/10/07 09:23:14;;;;;;;14.00;3.23;;;;;;;;;;4972469;28;20059;-63
2022/10/07 09:25:40;;;;;;;12.00;3.07;;;;;;;;;;4971696;28;20146;-63
2022/10/07 09:28:11;;;;;;;12.83;3.23;;;;;;;;;;4972444;28;20064;-64
2022/10/07 09:30:37;;;;;;;12.73;2.63;;;;;;;;;;4972025;28;20050;-63
2022/10/07 09:33:03;;;;;;;12.13;2.80;;;;;;;;;;4972361;28;20066;-64
2022/10/07 09:35:32;;;;;;;11.60;2.93;;;;;;;;;;4971921;28;20057;-63
2022/10/07 09:38:02;;;;;;;15.33;2.50;;;;;;;;;;4971725;28;20050;-63
2022/10/07 09:40:35;;;;;;;9.57;2.33;;;;;;;;;;4971823;28;20050;-64
2022/10/07 09:43:02;;;;;;;14.60;2.63;;;;;;;;;;4972102;28;20047;-63
2022/10/07 09:45:31;;;;;;;16.90;3.07;;;;;;;;;;4971526;28;20507;-64
2022/10/07 09:48:03;;;;;;;11.10;3.73;;;;;;;;;;4972193;28;20047;-64
2022/10/07 09:50:39;;;;;;;18.20;3.10;;;;;;;;;;4971974;28;20047;-63
2022/10/07 09:53:16;;;;;;;18.50;3.10;;;;;;;;;;4971596;28;20042;-64
2022/10/07 09:55:42;;;;;;;12.73;2.37;;;;;;;;;;4971720;28;20043;-63
2022/10/07 09:58:25;;;;;;;15.53;2.50;;;;;;;;;;4971396;28;20078;-63
2022/10/07 10:00:53;;;;;;;10.57;2.30;;;;;;;;;;4971327;28;20388;-64
2022/10/07 10:03:19;;;;;;;11.30;2.40;;;;;;;;;;4971194;28;20054;-64
2022/10/07 10:05:51;;;;;;;17.20;2.97;;;;;;;;;;4971265;28;20539;-64
2022/10/07 10:08:17;;;;;;;11.20;2.73;;;;;;;;;;4969815;28;20136;-64
2022/10/07 10:11:09;;;;;;;14.93;3.00;;;;;;;;;;4970212;28;20139;-63
2022/10/07 10:13:37;;;;;;;14.13;2.80;;;;;;;;;;4963037;28;20106;-63
2022/10/07 10:16:27;;;;;;;13.83;3.27;;;;;;;;;;4971550;28;20047;-64
2022/10/07 10:18:54;;;;;;;11.60;2.90;;;;;;;;;;4971370;28;20102;-63
2022/10/07 10:21:20;;;;;;;16.90;3.30;;;;;;;;;;4970435;28;20050;-63
2022/10/07 10:23:54;;;;;;;9.37;2.83;;;;;;;;;;4971325;28;20058;-64
2022/10/07 10:26:26;;;;;;;;;;;;;;;;;;4971653;28;20098;-63
2022/10/07 10:28:54;;;;;;;12.17;2.90;;;;;;;;;;4971553;28;20304;-63
2022/10/07 10:31:28;;;;;;;15.60;3.23;;;;;;;;;;4970620;28;20055;-64
2022/10/07 10:34:08;;;;;;;15.73;3.43;;;;;;;;;;4970912;28;20386;-64
2022/10/07 10:36:38;;;;;;;17.83;4.47;;;;;;;;;;4971247;28;20046;-63
2022/10/07 10:39:23;;;;;;;12.10;2.70;;;;;;;;;;4970338;28;20055;-63
2022/10/07 10:41:51;;;;;;;11.13;2.93;;;;;;;;;;4967283;28;20105;-64
2022/10/07 10:44:29;;;;;;;14.40;3.63;;;;;;;;;;4969957;28;20046;-63
2022/10/07 10:47:00;;;;;;;12.87;3.80;;;;;;;;;;4973031;28;20089;-63
2022/10/07 10:49:26;;;;;;;10.93;3.20;;;;;;;;;;4962078;28;20126;-63
2022/10/07 10:52:14;;;;;;;12.60;3.63;;;;;;;;;;4978429;28;20102;-63
2022/10/07 10:54:59;;;;;;;11.37;3.10;;;;;;;;;;4955291;28;20050;-63
2022/10/07 10:57:31;;;;;;;15.97;3.63;;;;;;;;;;4970919;28;20098;-63
2022/10/07 11:00:23;;;;;;;15.47;3.53;;;;;;;;;;4960459;28;20055;-63
2022/10/07 11:02:59;;;;;;;15.03;4.43;;;;;;;;;;4962196;28;20063;-63
2022/10/07 11:05:31;;;;;;;14.47;3.17;;;;;;;;;;4964260;28;20047;-63
2022/10/07 11:08:07;;;;;;;13.30;3.63;;;;;;;;;;4961898;28;20046;-63
2022/10/07 11:10:34;;;;;;;10.60;3.27;;;;;;;;;;4956334;28;20535;-63
2022/10/07 11:13:05;;;;;;;16.33;3.57;;;;;;;;;;4959505;28;20166;-63
2022/10/07 11:15:38;;;;;;;11.13;3.20;;;;;;;;;;4963566;28;20184;-63
2022/10/07 11:18:07;;;;;;;14.17;3.10;;;;;;;;;;4966715;28;20050;-63
2022/10/07 11:20:35;;;;;;;10.73;3.00;;;;;;;;;;4961390;28;20051;-63
2022/10/07 11:23:09;;;;;;;18.53;2.87;;;;;;;;;;4964486;28;20134;-63
2022/10/07 11:25:42;;;;;;;17.20;3.17;;;;;;;;;;4967502;28;20516;-63
2022/10/07 11:28:28;;;;;;;11.77;3.28;;;;;;;;;;4962237;28;20051;-63
2022/10/07 11:31:01;;;;;;;13.43;3.83;;;;;;;;;;4960723;28;20114;-63
2022/10/07 11:33:32;;;;;;;12.13;3.08;;;;;;;;;;4960217;28;20420;-63
2022/10/07 11:36:07;;;;;;;14.57;3.43;;;;;;;;;;4962416;28;20051;-63
2022/10/07 11:38:36;;;;;;;12.07;2.93;;;;;;;;;;4965607;28;20416;-64
2022/10/07 11:41:01;;;;;;;10.17;2.33;;;;;;;;;;4972458;28;20318;-63
2022/10/07 11:43:34;;;;;;;10.83;2.70;;;;;;;;;;4969319;28;20129;-63
2022/10/07 11:46:20;;;;;;;12.15;2.78;;;;;;;;;;4962502;28;20066;-63
2022/10/07 11:48:48;;;;;;;10.67;3.30;;;;;;;;;;4951274;28;20118;-63
2022/10/07 11:51:25;;;;;;;14.07;2.93;;;;;;;;;;4963242;28;20043;-63
2022/10/07 11:53:52;;;;;;;12.20;3.10;;;;;;;;;;4961530;28;20038;-63
2022/10/07 11:56:22;;;;;;;14.70;3.07;;;;;;;;;;4959973;28;20051;-64
2022/10/07 11:58:57;;;;;;;18.97;3.93;;;;;;;;;;4959734;28;20047;-63
2022/10/07 12:01:29;;;;;;;9.77;3.20;;;;;;;;;;4961697;28;20413;-63
2022/10/07 12:04:14;;;;;;;15.03;2.50;;;;;;;;;;4958009;28;20051;-63
2022/10/07 12:07:02;;;;;;;14.40;3.07;;;;;;;;;;4959135;28;20046;-63
2022/10/07 12:09:47;;;;;;;11.23;2.90;;;;;;;;;;4964269;28;20097;-63
2022/10/07 12:12:13;;;;;;;13.03;3.20;;;;;;;;;;4955819;28;20051;-63
2022/10/07 12:14:40;;;;;;;9.87;2.37;;;;;;;;;;4968526;28;20043;-63
2022/10/07 12:17:33;;;;;;;12.50;2.83;;;;;;;;;;4964540;28;20047;-63
2022/10/07 12:20:18;;;;;;;12.03;1.93;;;;;;;;;;4963495;28;20173;-63
2022/10/07 12:22:44;;;;;;;13.20;3.57;;;;;;;;;;4968683;28;20042;-64
2022/10/07 12:25:31;;;;;;;6.77;1.73;;;;;;;;;;4968928;28;20043;-63
2022/10/07 12:27:57;;;;;;;7.03;2.00;;;;;;;;;;4960259;28;20515;-63
2022/10/07 12:30:49;;;;;;;7.10;2.43;;;;;;;;;;4968761;28;20052;-63
2022/10/07 12:33:25;;;;;;;6.63;1.80;;;;;;;;;;4961828;28;20051;-63
2022/10/07 12:35:51;;;;;;;9.67;1.77;;;;;;;;;;4965271;28;20150;-63
2022/10/07 12:38:24;;;;;;;10.63;2.90;;;;;;;;;;4967883;28;20046;-63
2022/10/07 12:41:06;;;;;;;9.50;1.83;;;;;;;;;;4973600;28;20057;-63
2022/10/07 12:43:53;;;;;;;12.10;2.37;;;;;;;;;;4955920;28;20050;-63
2022/10/07 12:46:20;;;;;;;7.50;1.63;;;;;;;;;;4947619;28;20416;-64
2022/10/07 12:48:59;;;;;;;13.37;2.57;;;;;;;;;;4969820;28;20050;-63
2022/10/07 12:51:28;;;;;;;8.37;2.00;;;;;;;;;;4975608;28;20108;-63
2022/10/07 12:53:55;;;;;;;12.70;2.03;;;;;;;;;;4978252;28;20051;-63
2022/10/07 12:56:28;;;;;;;10.93;1.93;;;;;;;;;;4975733;28;20056;-63
2022/10/07 13:01:58;;;;;;;8.40;1.67;;;;;;;;;;4954747;28;20476;-63
2022/10/07 13:04:43;;;;;;;8.83;2.20;;;;;;;;;;4970627;28;20050;-63
2022/10/07 13:07:42;;;;;;;11.67;2.30;;;;;;;;;;4972099;28;20074;-63
2022/10/07 13:10:18;;;;;;;9.00;1.93;;;;;;;;;;4961005;28;20572;-63
2022/10/07 13:12:53;;;;;;;10.20;2.07;;;;;;;;;;4956184;28;20047;-63
2022/10/07 13:15:19;;;;;;;9.90;2.23;;;;;;;;;;4967145;28;20100;-63
2022/10/07 13:18:04;;;;;;;8.63;2.03;;;;;;;;;;4968548;28;20055;-63
2022/10/07 13:20:38;;;;;;;8.23;1.90;;;;;;;;;;4968328;28;20082;-63
2022/10/07 13:23:04;;;;;;;10.67;2.53;;;;;;;;;;4969246;28;20046;-63
2022/10/07 13:25:30;;;;;;;6.90;2.10;;;;;;;;;;4969180;28;20045;-63
2022/10/07 13:27:57;;;;;;;5.93;1.77;;;;;;;;;;4969304;28;20054;-63
2022/10/07 13:30:39;;;;;;;7.77;2.60;;;;;;;;;;4969177;28;20425;-63
2022/10/07 13:33:32;;;;;;;8.10;1.70;;;;;;;;;;4968527;28;20169;-63
2022/10/07 13:35:58;;;;;;;;;;;;;;;;;;4968660;28;20082;-63
2022/10/07 13:38:26;;;;;;;16.17;2.13;;;;;;;;;;4970039;28;20369;-63
2022/10/07 13:40:53;;;;;;;10.20;2.27;;;;;;;;;;4971155;28;20134;-63
2022/10/07 13:43:20;;;;;;;8.03;1.80;;;;;;;;;;4972062;28;20051;-63
2022/10/07 13:45:46;;;;;;;11.50;2.30;;;;;;;;;;4972442;28;20129;-63
2022/10/07 13:48:16;;;;;;;12.00;2.60;;;;;;;;;;4972499;28;20090;-63
2022/10/07 13:50:43;;;;;;;10.30;2.00;;;;;;;;;;4971070;28;20051;-63
2022/10/07 13:53:18;;;;;;;9.47;2.17;;;;;;;;;;4971581;28;20053;-63
2022/10/07 13:55:45;;;;;;;7.53;2.00;;;;;;;;;;4970754;28;20078;-63
2022/10/07 13:58:12;;;;;;;6.63;1.70;;;;;;;;;;4972197;28;20051;-63
2022/10/07 14:00:42;;;;;;;6.60;1.87;;;;;;;;;;4972365;28;20086;-63
2022/10/07 14:03:15;;;;;;;11.60;3.00;;;;;;;;;;4972037;28;20051;-63
2022/10/07 14:05:46;;;;;;;7.18;2.58;;;;;;;;;;4972544;28;20368;-63
2022/10/07 14:08:13;;;;;;;7.43;1.70;;;;;;;;;;4972215;28;20051;-63
2022/10/07 14:10:49;;;;;;;10.53;2.30;;;;;;;;;;4970129;28;20046;-63
2022/10/07 14:13:15;;;;;;;6.83;1.80;;;;;;;;;;4971884;28;20086;-63
2022/10/07 14:15:46;;;;;;;5.37;1.90;;;;;;;;;;4971735;28;20046;-63
2022/10/07 14:18:14;;;;;;;12.83;2.20;;;;;;;;;;4971673;28;20046;-63
2022/10/07 14:20:43;;;;;;;9.10;2.10;;;;;;;;;;4971189;28;20134;-63
2022/10/07 14:23:25;;;;;;;9.63;2.03;;;;;;;;;;4971970;28;20121;-63
2022/10/07 14:25:53;;;;;;;11.53;2.13;;;;;;;;;;4970411;28;20047;-63
2022/10/07 14:28:29;;;;;;;7.83;2.10;;;;;;;;;;4971791;28;20039;-63
2022/10/07 14:37:01;;;;;;;7.23;2.00;;;;;;;;;;4971455;28;20061;-63
2022/10/07 14:39:33;;;;;;;9.07;2.23;;;;;;;;;;4970156;28;20051;-63
2022/10/07 14:42:00;;;;;;;11.40;2.38;;;;;;;;;;4971428;28;20572;-63
2022/10/07 14:44:26;;;;;;;10.53;1.63;;;;;;;;;;4970886;28;20478;-63
2022/10/07 14:47:03;;;;;;;7.53;1.77;;;;;;;;;;4971147;28;20039;-63
2022/10/07 14:49:29;;;;;;;7.37;1.70;;;;;;;;;;4971295;28;20054;-63
2022/10/07 14:51:55;;;;;;;7.80;1.63;;;;;;;;;;4971029;28;20047;-63
2022/10/07 14:54:21;;;;;;;9.83;2.73;;;;;;;;;;4970833;28;20489;-63
2022/10/07 14:56:47;;;;;;;12.70;3.13;;;;;;;;;;4954988;28;20521;-63
2022/10/07 14:59:14;;;;;;;6.17;1.80;;;;;;;;;;4951278;29;20098;-63
2022/10/07 15:01:40;;;;;;;9.77;2.27;;;;;;;;;;4951736;29;20043;-63
2022/10/07 15:04:06;;;;;;;6.93;2.03;;;;;;;;;;4952051;29;20043;-63